createdAt,value
2022-12-29T00:00:02.519Z,9.462857
2022-12-29T00:01:02.742Z,9.462965
2022-12-29T00:02:02.499Z,9.462986
2022-12-29T00:03:02.592Z,9.463051
2022-12-29T00:04:02.504Z,9.462942
2022-12-29T00:05:02.484Z,9.463078
2022-12-29T00:06:02.587Z,9.462928
2022-12-29T00:07:02.507Z,9.462990
2022-12-29T00:08:02.420Z,9.463074
2022-12-29T00:09:02.425Z,9.462972
2022-12-29T00:10:02.519Z,9.462952
2022-12-29T00:11:02.401Z,9.462936
2022-12-29T00:12:02.416Z,9.462948
2022-12-29T00:13:02.466Z,9.462951
2022-12-29T00:14:02.407Z,9.462970
2022-12-29T00:15:02.356Z,9.462945
2022-12-29T00:16:02.482Z,9.462896
2022-12-29T00:17:02.435Z,9.462929
2022-12-29T00:18:02.558Z,9.462981
2022-12-29T00:19:02.352Z,9.462939
2022-12-29T00:20:02.377Z,9.462914
2022-12-29T00:21:02.340Z,9.462943
2022-12-29T00:22:02.372Z,9.462944
2022-12-29T00:23:02.366Z,9.462956
2022-12-29T00:24:02.418Z,9.462902
2022-12-29T00:25:02.752Z,9.462948
2022-12-29T00:26:02.330Z,9.462949
2022-12-29T00:27:02.317Z,9.462967
2022-12-29T00:28:07.340Z,9.462898
2022-12-29T00:29:03.345Z,9.462920
2022-12-29T00:30:02.360Z,9.462947
2022-12-29T00:31:02.334Z,9.462930
2022-12-29T00:32:02.309Z,9.462983
2022-12-29T00:33:02.321Z,9.462986
2022-12-29T00:34:02.289Z,9.463010
2022-12-29T00:35:02.295Z,9.462959
2022-12-29T00:36:02.371Z,9.462924
2022-12-29T00:37:02.240Z,9.462898
2022-12-29T00:38:02.245Z,9.462996
2022-12-29T00:39:02.263Z,9.462955
2022-12-29T00:40:02.202Z,9.462971
2022-12-29T00:41:02.302Z,9.462970
2022-12-29T00:42:02.286Z,9.463015
2022-12-29T00:43:02.188Z,9.462984
2022-12-29T00:44:02.266Z,9.463029
2022-12-29T00:45:02.167Z,9.463023
2022-12-29T00:46:02.248Z,9.463021
2022-12-29T00:47:02.282Z,9.463027
2022-12-29T00:48:02.196Z,9.463014
2022-12-29T00:49:02.152Z,9.463037
2022-12-29T00:50:02.185Z,9.463014
2022-12-29T00:51:02.162Z,9.463047
2022-12-29T00:52:02.813Z,9.463028
2022-12-29T00:53:02.118Z,9.463037
2022-12-29T00:54:02.104Z,9.462961
2022-12-29T00:55:02.098Z,9.463043
2022-12-29T00:56:02.101Z,9.463002
2022-12-29T00:57:02.077Z,9.463041
2022-12-29T00:58:02.089Z,9.463045
2022-12-29T00:59:02.211Z,9.463043
2022-12-29T01:00:02.089Z,9.463050
2022-12-29T01:01:02.156Z,9.463070
2022-12-29T01:02:02.161Z,9.463052
2022-12-29T01:03:02.261Z,9.463076
2022-12-29T01:04:04.276Z,9.463109
2022-12-29T01:05:02.366Z,9.463054
2022-12-29T01:06:02.137Z,9.463048
2022-12-29T01:07:02.041Z,9.463023
2022-12-29T01:08:02.002Z,9.463024
2022-12-29T01:09:02.010Z,9.462979
2022-12-29T01:10:02.332Z,9.463007
2022-12-29T01:11:02.021Z,9.462990
2022-12-29T01:12:02.204Z,9.463023
2022-12-29T01:13:01.977Z,9.462930
2022-12-29T01:14:01.951Z,9.462964
2022-12-29T01:15:01.967Z,9.462980
2022-12-29T01:16:02.123Z,9.463020
2022-12-29T01:17:01.981Z,9.463080
2022-12-29T01:18:01.944Z,9.463060
2022-12-29T01:19:01.941Z,9.462999
2022-12-29T01:20:01.976Z,9.463074
2022-12-29T01:21:01.958Z,9.463037
2022-12-29T01:22:02.057Z,9.463051
2022-12-29T01:23:01.918Z,9.463033
2022-12-29T01:24:02.011Z,9.463010
2022-12-29T01:25:01.894Z,9.462951
2022-12-29T01:26:01.866Z,9.462952
2022-12-29T01:27:01.884Z,9.462987
2022-12-29T01:28:02.485Z,9.463044
2022-12-29T01:29:01.867Z,9.463032
2022-12-29T01:30:01.919Z,9.462978
2022-12-29T01:31:01.849Z,9.462961
2022-12-29T01:32:01.988Z,9.462990
2022-12-29T01:33:01.843Z,9.463002
2022-12-29T01:34:01.814Z,9.462922
2022-12-29T01:35:01.846Z,9.462973
2022-12-29T01:36:01.821Z,9.462953
2022-12-29T01:37:01.827Z,9.463003
2022-12-29T01:38:01.863Z,9.463020
2022-12-29T01:39:02.081Z,9.462996
2022-12-29T01:40:01.808Z,9.462984
2022-12-29T01:41:01.814Z,9.462987
2022-12-29T01:42:01.776Z,9.463024
2022-12-29T01:43:01.762Z,9.463028
2022-12-29T01:44:01.748Z,9.463052
2022-12-29T01:45:01.779Z,9.463017
2022-12-29T01:46:01.881Z,9.462932
2022-12-29T01:47:01.768Z,9.463019
2022-12-29T01:48:01.765Z,9.462996
2022-12-29T01:49:01.746Z,9.463002
2022-12-29T01:50:01.750Z,9.463012
2022-12-29T01:51:01.712Z,9.463004
2022-12-29T01:52:01.696Z,9.462978
2022-12-29T01:53:01.752Z,9.463037
2022-12-29T01:54:01.699Z,9.462991
2022-12-29T01:55:01.712Z,9.463043
2022-12-29T01:56:01.781Z,9.462994
2022-12-29T01:57:01.669Z,9.463026
2022-12-29T01:58:01.684Z,9.463000
2022-12-29T01:59:01.868Z,9.463009
2022-12-29T02:00:01.753Z,9.463088
2022-12-29T02:01:01.732Z,9.463000
2022-12-29T02:02:01.772Z,9.462948
2022-12-29T02:03:01.794Z,9.463043
2022-12-29T02:04:01.643Z,9.462993
2022-12-29T02:05:04.639Z,9.463024
2022-12-29T02:06:01.601Z,9.463004
2022-12-29T02:07:01.628Z,9.463138
2022-12-29T02:08:01.613Z,9.463090
2022-12-29T02:09:01.597Z,9.462976
2022-12-29T02:10:01.595Z,9.463104
2022-12-29T02:11:01.584Z,9.462994
2022-12-29T02:12:01.719Z,9.462923
2022-12-29T02:13:01.556Z,9.463071
2022-12-29T02:14:03.704Z,9.462944
2022-12-29T02:15:01.567Z,9.462940
2022-12-29T02:16:01.561Z,9.462903
2022-12-29T02:17:01.544Z,9.463047
2022-12-29T02:18:01.514Z,9.463009
2022-12-29T02:19:01.511Z,9.463081
2022-12-29T02:20:01.650Z,9.462902
2022-12-29T02:21:01.488Z,9.463011
2022-12-29T02:22:01.562Z,9.463007
2022-12-29T02:23:01.513Z,9.463033
2022-12-29T02:24:01.510Z,9.463063
2022-12-29T02:25:01.486Z,9.463048
2022-12-29T02:26:01.513Z,9.462982
2022-12-29T02:27:01.564Z,9.462998
2022-12-29T02:28:01.531Z,9.463009
2022-12-29T02:29:01.567Z,9.463038
2022-12-29T02:30:01.446Z,9.462931
2022-12-29T02:31:01.425Z,9.463037
2022-12-29T02:32:01.495Z,9.462955
2022-12-29T02:33:01.419Z,9.462883
2022-12-29T02:34:01.440Z,9.463048
2022-12-29T02:35:01.404Z,9.462992
2022-12-29T02:36:01.402Z,9.463244
2022-12-29T02:37:01.512Z,9.463102
2022-12-29T02:38:01.383Z,9.463133
2022-12-29T02:39:01.366Z,9.462893
2022-12-29T02:40:01.396Z,9.462906
2022-12-29T02:41:01.347Z,9.462949
2022-12-29T02:42:01.416Z,9.462921
2022-12-29T02:43:01.368Z,9.462888
2022-12-29T02:44:01.346Z,9.462913
2022-12-29T02:45:01.331Z,9.462930
2022-12-29T02:46:01.387Z,9.462893
2022-12-29T02:47:01.327Z,9.462902
2022-12-29T02:48:01.316Z,9.462905
2022-12-29T02:49:01.312Z,9.462943
2022-12-29T02:50:01.352Z,9.462903
2022-12-29T02:51:01.287Z,9.462981
2022-12-29T02:52:01.295Z,9.462948
2022-12-29T02:53:01.262Z,9.462946
2022-12-29T02:54:01.315Z,9.462923
2022-12-29T02:55:01.307Z,9.462955
2022-12-29T02:56:01.260Z,9.462929
2022-12-29T02:57:01.272Z,9.462918
2022-12-29T02:58:01.271Z,9.462855
2022-12-29T02:59:01.223Z,9.462908
2022-12-29T03:00:01.264Z,9.462957
2022-12-29T03:01:01.285Z,9.462932
2022-12-29T03:02:01.531Z,9.462977
2022-12-29T03:03:01.368Z,9.463001
2022-12-29T03:04:01.218Z,9.462986
2022-12-29T03:05:01.192Z,9.462987
2022-12-29T03:06:01.186Z,9.462968
2022-12-29T03:07:01.165Z,9.462947
2022-12-29T03:08:01.238Z,9.462935
2022-12-29T03:09:01.220Z,9.462882
2022-12-29T03:10:01.181Z,9.462914
2022-12-29T03:11:01.168Z,9.462992
2022-12-29T03:12:01.199Z,9.462963
2022-12-29T03:13:01.149Z,9.462943
2022-12-29T03:14:01.222Z,9.462936
2022-12-29T03:15:01.109Z,9.462893
2022-12-29T03:16:01.147Z,9.462931
2022-12-29T03:17:01.168Z,9.462914
2022-12-29T03:18:01.091Z,9.462968
2022-12-29T03:19:01.101Z,9.462983
2022-12-29T03:20:01.104Z,9.463015
2022-12-29T03:21:01.099Z,9.463012
2022-12-29T03:22:01.099Z,9.462981
2022-12-29T03:23:01.083Z,9.463017
2022-12-29T03:24:01.142Z,9.462996
2022-12-29T03:25:01.046Z,9.462971
2022-12-29T03:26:01.046Z,9.462935
2022-12-29T03:27:01.026Z,9.462939
2022-12-29T03:28:01.031Z,9.462943
2022-12-29T03:29:01.024Z,9.462960
2022-12-29T03:30:01.056Z,9.462900
2022-12-29T03:31:01.215Z,9.462993
2022-12-29T03:32:01.057Z,9.462898
2022-12-29T03:33:00.983Z,9.462937
2022-12-29T03:34:01.007Z,9.462978
2022-12-29T03:35:00.981Z,9.462985
2022-12-29T03:36:00.972Z,9.463024
2022-12-29T03:37:01.034Z,9.463017
2022-12-29T03:38:01.019Z,9.462984
2022-12-29T03:39:00.987Z,9.462994
2022-12-29T03:40:00.999Z,9.462983
2022-12-29T03:41:00.959Z,9.463014
2022-12-29T03:42:00.956Z,9.462973
2022-12-29T03:43:00.921Z,9.463114
2022-12-29T03:44:00.968Z,9.463018
2022-12-29T03:45:00.916Z,9.463135
2022-12-29T03:46:01.045Z,9.463118
2022-12-29T03:47:00.921Z,9.463015
2022-12-29T03:48:00.895Z,9.463110
2022-12-29T03:49:00.969Z,9.463051
2022-12-29T03:50:00.886Z,9.462878
2022-12-29T03:51:00.921Z,9.463062
2022-12-29T03:52:00.934Z,9.463011
2022-12-29T03:53:00.992Z,9.462984
2022-12-29T03:54:00.883Z,9.462977
2022-12-29T03:55:01.087Z,9.462940
2022-12-29T03:56:00.820Z,9.462986
2022-12-29T03:57:00.830Z,9.463004
2022-12-29T03:58:00.919Z,9.462986
2022-12-29T03:59:00.891Z,9.463011
2022-12-29T04:00:00.824Z,9.463033
2022-12-29T04:01:00.971Z,9.463019
2022-12-29T04:02:01.002Z,9.463034
2022-12-29T04:03:00.934Z,9.463012
2022-12-29T04:04:00.799Z,9.462971
2022-12-29T04:05:00.766Z,9.462994
2022-12-29T04:06:00.885Z,9.462966
2022-12-29T04:07:00.758Z,9.462963
2022-12-29T04:08:00.761Z,9.462908
2022-12-29T04:09:00.738Z,9.462977
2022-12-29T04:10:00.841Z,9.463075
2022-12-29T04:11:00.744Z,9.463013
2022-12-29T04:12:00.727Z,9.462997
2022-12-29T04:13:00.708Z,9.462932
2022-12-29T04:14:00.707Z,9.462983
2022-12-29T04:15:00.707Z,9.462921
2022-12-29T04:16:00.801Z,9.462998
2022-12-29T04:17:00.676Z,9.462974
2022-12-29T04:18:00.739Z,9.463016
2022-12-29T04:19:00.711Z,9.463021
2022-12-29T04:20:00.675Z,9.462925
2022-12-29T04:21:00.758Z,9.462782
2022-12-29T04:22:00.689Z,9.462842
2022-12-29T04:23:00.649Z,9.462974
2022-12-29T04:24:00.636Z,9.462956
2022-12-29T04:25:00.728Z,9.462939
2022-12-29T04:26:00.783Z,9.462987
2022-12-29T04:27:00.598Z,9.462957
2022-12-29T04:28:00.646Z,9.462921
2022-12-29T04:29:00.603Z,9.462945
2022-12-29T04:30:00.607Z,9.462948
2022-12-29T04:31:01.698Z,9.462957
2022-12-29T04:32:00.566Z,9.462933
2022-12-29T04:33:00.580Z,9.462949
2022-12-29T04:34:00.632Z,9.462964
2022-12-29T04:35:00.548Z,9.462970
2022-12-29T04:36:00.557Z,9.462944
2022-12-29T04:37:00.539Z,9.462945
2022-12-29T04:38:00.526Z,9.462935
2022-12-29T04:39:00.518Z,9.462974
2022-12-29T04:40:00.553Z,9.462976
2022-12-29T04:41:00.523Z,9.462966
2022-12-29T04:42:00.530Z,9.462916
2022-12-29T04:43:00.527Z,9.462964
2022-12-29T04:44:00.487Z,9.462962
2022-12-29T04:45:00.549Z,9.462951
2022-12-29T04:46:00.583Z,9.462962
2022-12-29T04:47:00.455Z,9.463011
2022-12-29T04:48:00.502Z,9.462995
2022-12-29T04:49:00.511Z,9.462947
2022-12-29T04:50:00.521Z,9.462972
2022-12-29T04:51:00.462Z,9.463042
2022-12-29T04:52:00.542Z,9.462988
2022-12-29T04:53:00.436Z,9.463077
2022-12-29T04:54:00.442Z,9.462980
2022-12-29T04:55:00.591Z,9.462957
2022-12-29T04:56:00.405Z,9.462959
2022-12-29T04:57:00.429Z,9.462963
2022-12-29T04:58:00.439Z,9.462940
2022-12-29T04:59:00.387Z,9.462960
2022-12-29T05:00:00.395Z,9.462970
2022-12-29T05:01:00.398Z,9.462986
2022-12-29T05:02:00.585Z,9.462980
2022-12-29T05:03:00.707Z,9.462989
2022-12-29T05:04:00.453Z,9.462976
2022-12-29T05:05:00.420Z,9.462974
2022-12-29T05:06:00.411Z,9.462985
2022-12-29T05:07:00.424Z,9.462994
2022-12-29T05:08:00.364Z,9.462955
2022-12-29T05:09:00.374Z,9.462904
2022-12-29T05:10:00.464Z,9.462982
2022-12-29T05:11:00.356Z,9.463001
2022-12-29T05:12:00.305Z,9.463002
2022-12-29T05:13:00.319Z,9.463058
2022-12-29T05:14:00.324Z,9.463007
2022-12-29T05:15:00.314Z,9.463032
2022-12-29T05:16:00.355Z,9.463197
2022-12-29T05:17:00.247Z,9.463083
2022-12-29T05:18:00.269Z,9.463043
2022-12-29T05:19:00.270Z,9.463102
2022-12-29T05:20:00.286Z,9.462952
2022-12-29T05:21:00.297Z,9.463043
2022-12-29T05:22:00.273Z,9.463128
2022-12-29T05:23:00.275Z,9.462984
2022-12-29T05:24:00.224Z,9.463056
2022-12-29T05:25:00.258Z,9.463114
2022-12-29T05:26:00.256Z,9.463055
2022-12-29T05:27:00.216Z,9.463140
2022-12-29T05:28:00.213Z,9.463182
2022-12-29T05:29:00.200Z,9.463044
2022-12-29T05:30:00.247Z,9.462872
2022-12-29T05:31:00.509Z,9.462989
2022-12-29T05:32:00.167Z,9.463099
2022-12-29T05:33:00.198Z,9.463202
2022-12-29T05:34:00.173Z,9.463089
2022-12-29T05:35:00.203Z,9.462888
2022-12-29T05:36:00.158Z,9.462847
2022-12-29T05:37:00.153Z,9.462963
2022-12-29T05:38:00.162Z,9.463000
2022-12-29T05:39:00.160Z,9.463061
2022-12-29T05:40:00.212Z,9.463063
2022-12-29T05:41:00.133Z,9.463008
2022-12-29T05:42:00.131Z,9.462796
2022-12-29T05:43:00.108Z,9.463045
2022-12-29T05:44:00.114Z,9.462819
2022-12-29T05:45:00.258Z,9.462942
2022-12-29T05:46:00.113Z,9.463010
2022-12-29T05:47:00.150Z,9.463140
2022-12-29T05:48:00.082Z,9.462919
2022-12-29T05:49:00.045Z,9.463080
2022-12-29T05:50:00.061Z,9.462936
2022-12-29T05:51:00.064Z,9.463056
2022-12-29T05:52:00.067Z,9.462840
2022-12-29T05:53:00.086Z,9.462738
2022-12-29T05:54:00.051Z,9.463022
2022-12-29T05:55:00.047Z,9.462873
2022-12-29T05:56:00.032Z,9.462915
2022-12-29T05:57:00.051Z,9.463036
2022-12-29T05:58:00.011Z,9.462905
2022-12-29T05:59:00.025Z,9.463104
2022-12-29T06:00:00.039Z,9.462939
2022-12-29T06:00:59.996Z,9.462779
2022-12-29T06:02:00.308Z,9.462853
2022-12-29T06:03:00.259Z,9.462817
2022-12-29T06:04:00.176Z,9.462750
2022-12-29T06:04:59.941Z,9.462856
2022-12-29T06:06:00.050Z,9.462888
2022-12-29T06:06:59.974Z,9.462875
2022-12-29T06:07:59.925Z,9.462878
2022-12-29T06:08:59.906Z,9.462736
2022-12-29T06:09:59.925Z,9.462956
2022-12-29T06:10:59.899Z,9.462784
2022-12-29T06:11:59.919Z,9.462760
2022-12-29T06:13:00.203Z,9.462788
2022-12-29T06:14:00.293Z,9.462659
2022-12-29T06:14:59.860Z,9.462692
2022-12-29T06:15:59.956Z,9.462627
2022-12-29T06:16:59.872Z,9.462594
2022-12-29T06:17:59.858Z,9.462660
2022-12-29T06:18:59.856Z,9.462722
2022-12-29T06:19:59.824Z,9.462832
2022-12-29T06:20:59.824Z,9.462852
2022-12-29T06:21:59.890Z,9.462850
2022-12-29T06:22:59.791Z,9.462848
2022-12-29T06:23:59.885Z,9.462860
2022-12-29T06:25:04.592Z,9.462893
2022-12-29T06:26:00.846Z,9.462899
2022-12-29T06:27:00.000Z,9.462887
2022-12-29T06:28:00.029Z,9.462839
2022-12-29T06:28:59.833Z,9.462791
2022-12-29T06:29:59.799Z,9.462849
2022-12-29T06:30:59.759Z,9.462905
2022-12-29T06:31:59.882Z,9.462919
2022-12-29T06:32:59.743Z,9.462954
2022-12-29T06:34:04.984Z,9.462940
2022-12-29T06:34:59.711Z,9.462955
2022-12-29T06:35:59.771Z,9.462898
2022-12-29T06:36:59.702Z,9.462916
2022-12-29T06:37:59.700Z,9.462933
2022-12-29T06:38:59.767Z,9.462915
2022-12-29T06:39:59.691Z,9.462922
2022-12-29T06:40:59.680Z,9.462936
2022-12-29T06:41:59.707Z,9.462972
2022-12-29T06:42:59.689Z,9.462953
2022-12-29T06:43:59.710Z,9.462964
2022-12-29T06:44:59.652Z,9.462964
2022-12-29T06:45:59.784Z,9.462952
2022-12-29T06:46:59.665Z,9.462938
2022-12-29T06:47:59.850Z,9.462916
2022-12-29T06:48:59.618Z,9.462923
2022-12-29T06:49:59.616Z,9.462923
2022-12-29T06:50:59.630Z,9.462934
2022-12-29T06:51:59.594Z,9.462927
2022-12-29T06:52:59.594Z,9.462936
2022-12-29T06:53:59.597Z,9.462942
2022-12-29T06:54:59.644Z,9.462943
2022-12-29T06:55:59.652Z,9.462922
2022-12-29T06:56:59.635Z,9.462915
2022-12-29T06:57:59.640Z,9.462893
2022-12-29T06:58:59.595Z,9.462919
2022-12-29T06:59:59.618Z,9.462927
2022-12-29T07:00:59.698Z,9.462891
2022-12-29T07:01:59.664Z,9.462950
2022-12-29T07:02:59.885Z,9.462931
2022-12-29T07:03:59.551Z,9.463000
2022-12-29T07:04:59.695Z,9.463021
2022-12-29T07:05:59.536Z,9.463015
2022-12-29T07:06:59.498Z,9.462975
2022-12-29T07:07:59.827Z,9.462988
2022-12-29T07:08:59.494Z,9.462947
2022-12-29T07:09:59.467Z,9.463029
2022-12-29T07:10:59.600Z,9.463008
2022-12-29T07:11:59.452Z,9.462981
2022-12-29T07:12:59.469Z,9.463053
2022-12-29T07:14:02.638Z,9.463037
2022-12-29T07:14:59.507Z,9.463071
2022-12-29T07:15:59.435Z,9.463035
2022-12-29T07:16:59.488Z,9.463025
2022-12-29T07:17:59.444Z,9.463136
2022-12-29T07:18:59.411Z,9.463124
2022-12-29T07:19:59.464Z,9.462944
2022-12-29T07:20:59.400Z,9.463025
2022-12-29T07:21:59.405Z,9.462980
2022-12-29T07:22:59.407Z,9.463108
2022-12-29T07:23:59.397Z,9.463130
2022-12-29T07:24:59.357Z,9.463228
2022-12-29T07:25:59.370Z,9.463112
2022-12-29T07:26:59.356Z,9.463188
2022-12-29T07:27:59.365Z,9.463079
2022-12-29T07:28:59.357Z,9.463072
2022-12-29T07:29:59.440Z,9.463087
2022-12-29T07:30:59.340Z,9.462911
2022-12-29T07:31:59.370Z,9.462936
2022-12-29T07:32:59.336Z,9.462965
2022-12-29T07:33:59.358Z,9.462983
2022-12-29T07:34:59.288Z,9.463085
2022-12-29T07:35:59.310Z,9.463081
2022-12-29T07:36:59.855Z,9.463080
2022-12-29T07:37:59.272Z,9.463042
2022-12-29T07:38:59.307Z,9.463027
2022-12-29T07:39:59.259Z,9.463084
2022-12-29T07:40:59.284Z,9.463135
2022-12-29T07:42:04.585Z,9.463118
2022-12-29T07:43:00.248Z,9.463120
2022-12-29T07:43:59.236Z,9.463160
2022-12-29T07:44:59.222Z,9.463137
2022-12-29T07:45:59.340Z,9.463152
2022-12-29T07:46:59.401Z,9.463107
2022-12-29T07:47:59.211Z,9.463058
2022-12-29T07:48:59.235Z,9.463044
2022-12-29T07:49:59.185Z,9.463039
2022-12-29T07:50:59.231Z,9.463019
2022-12-29T07:51:59.169Z,9.462992
2022-12-29T07:52:59.213Z,9.463022
2022-12-29T07:53:59.181Z,9.463012
2022-12-29T07:54:59.156Z,9.462955
2022-12-29T07:55:59.198Z,9.462961
2022-12-29T07:56:59.127Z,9.463005
2022-12-29T07:57:59.208Z,9.462986
2022-12-29T07:58:59.444Z,9.463001
2022-12-29T07:59:59.168Z,9.463041
2022-12-29T08:00:59.185Z,9.463044
2022-12-29T08:01:59.363Z,9.463035
2022-12-29T08:02:59.117Z,9.463047
2022-12-29T08:03:59.216Z,9.463053
2022-12-29T08:04:59.144Z,9.463021
2022-12-29T08:05:59.091Z,9.462997
2022-12-29T08:06:59.072Z,9.462990
2022-12-29T08:07:59.099Z,9.463034
2022-12-29T08:09:04.085Z,9.463018
2022-12-29T08:10:00.064Z,9.463036
2022-12-29T08:10:59.034Z,9.463004
2022-12-29T08:11:59.034Z,9.462975
2022-12-29T08:12:59.020Z,9.462992
2022-12-29T08:13:59.036Z,9.462955
2022-12-29T08:14:59.007Z,9.462995
2022-12-29T08:15:59.104Z,9.463040
2022-12-29T08:16:59.074Z,9.462973
2022-12-29T08:17:59.138Z,9.462989
2022-12-29T08:18:58.979Z,9.463006
2022-12-29T08:19:58.981Z,9.463031
2022-12-29T08:20:58.975Z,9.462997
2022-12-29T08:21:58.949Z,9.462996
2022-12-29T08:22:58.961Z,9.463069
2022-12-29T08:23:58.972Z,9.463051
2022-12-29T08:24:58.946Z,9.462986
2022-12-29T08:25:58.952Z,9.463002
2022-12-29T08:27:02.980Z,9.463039
2022-12-29T08:27:59.939Z,9.463015
2022-12-29T08:28:58.945Z,9.462974
2022-12-29T08:29:58.927Z,9.462981
2022-12-29T08:30:59.074Z,9.462976
2022-12-29T08:31:58.885Z,9.463047
2022-12-29T08:32:58.880Z,9.463150
2022-12-29T08:33:59.264Z,9.463147
2022-12-29T08:34:58.881Z,9.463034
2022-12-29T08:35:58.899Z,9.463014
2022-12-29T08:36:58.935Z,9.463004
2022-12-29T08:37:58.857Z,9.463058
2022-12-29T08:38:58.846Z,9.463025
2022-12-29T08:39:58.863Z,9.462992
2022-12-29T08:40:58.875Z,9.462979
2022-12-29T08:41:58.806Z,9.462987
2022-12-29T08:42:58.924Z,9.463017
2022-12-29T08:43:58.857Z,9.463032
2022-12-29T08:44:58.882Z,9.463017
2022-12-29T08:45:58.854Z,9.463056
2022-12-29T08:46:58.825Z,9.463062
2022-12-29T08:47:58.853Z,9.463069
2022-12-29T08:48:58.838Z,9.463089
2022-12-29T08:49:58.812Z,9.463024
2022-12-29T08:50:58.780Z,9.463032
2022-12-29T08:51:58.758Z,9.463039
2022-12-29T08:52:58.776Z,9.462991
2022-12-29T08:53:58.728Z,9.463032
2022-12-29T08:54:58.773Z,9.462996
2022-12-29T08:56:04.058Z,9.463129
2022-12-29T08:56:59.732Z,9.463041
2022-12-29T08:57:58.715Z,9.463041
2022-12-29T08:58:58.698Z,9.463003
2022-12-29T08:59:58.715Z,9.463088
2022-12-29T09:00:58.711Z,9.463021
2022-12-29T09:01:58.928Z,9.462920
2022-12-29T09:02:58.952Z,9.463081
2022-12-29T09:04:16.416Z,9.462980
2022-12-29T09:04:59.676Z,9.463047
2022-12-29T09:05:58.744Z,9.463001
2022-12-29T09:06:58.671Z,9.462964
2022-12-29T09:07:58.802Z,9.463008
2022-12-29T09:08:58.628Z,9.463008
2022-12-29T09:09:58.634Z,9.463054
2022-12-29T09:10:58.605Z,9.463100
2022-12-29T09:11:58.762Z,9.463038
2022-12-29T09:12:58.588Z,9.462999
2022-12-29T09:13:58.591Z,9.463033
2022-12-29T09:14:58.605Z,9.462905
2022-12-29T09:15:58.657Z,9.462859
2022-12-29T09:16:58.582Z,9.462858
2022-12-29T09:17:58.580Z,9.463055
2022-12-29T09:18:58.546Z,9.463274
2022-12-29T09:19:58.549Z,9.463407
2022-12-29T09:20:58.557Z,9.463355
2022-12-29T09:21:58.627Z,9.463083
2022-12-29T09:22:58.531Z,9.463021
2022-12-29T09:23:58.513Z,9.463009
2022-12-29T09:24:58.499Z,9.463039
2022-12-29T09:25:58.507Z,9.463077
2022-12-29T09:26:58.501Z,9.462978
2022-12-29T09:27:58.641Z,9.462961
2022-12-29T09:28:58.517Z,9.462954
2022-12-29T09:29:58.481Z,9.462950
2022-12-29T09:30:58.681Z,9.462980
2022-12-29T09:31:58.464Z,9.462968
2022-12-29T09:32:58.537Z,9.462952
2022-12-29T09:33:58.560Z,9.462999
2022-12-29T09:34:58.449Z,9.462937
2022-12-29T09:35:58.419Z,9.462922
2022-12-29T09:36:58.581Z,9.462962
2022-12-29T09:37:58.457Z,9.462947
2022-12-29T09:38:58.669Z,9.462984
2022-12-29T09:39:58.409Z,9.462980
2022-12-29T09:40:58.546Z,9.463037
2022-12-29T09:41:58.376Z,9.463027
2022-12-29T09:42:58.483Z,9.462992
2022-12-29T09:43:58.428Z,9.462987
2022-12-29T09:44:58.357Z,9.463021
2022-12-29T09:45:58.479Z,9.462971
2022-12-29T09:46:58.549Z,9.462996
2022-12-29T09:47:58.411Z,9.462995
2022-12-29T09:48:58.312Z,9.463108
2022-12-29T09:49:58.318Z,9.463140
2022-12-29T09:50:58.322Z,9.463005
2022-12-29T09:51:58.327Z,9.463067
2022-12-29T09:52:58.298Z,9.463030
2022-12-29T09:53:58.344Z,9.462958
2022-12-29T09:55:03.787Z,9.462974
2022-12-29T09:55:59.302Z,9.462957
2022-12-29T09:56:58.398Z,9.462976
2022-12-29T09:57:58.271Z,9.462936
2022-12-29T09:58:58.277Z,9.462906
2022-12-29T09:59:58.276Z,9.462907
2022-12-29T10:00:58.347Z,9.462923
2022-12-29T10:01:58.512Z,9.462909
2022-12-29T10:02:58.375Z,9.462924
2022-12-29T10:03:58.226Z,9.462899
2022-12-29T10:04:58.223Z,9.462908
2022-12-29T10:05:58.221Z,9.462926
2022-12-29T10:07:59.217Z,9.462906
2022-12-29T10:08:58.194Z,9.462920
2022-12-29T10:09:58.224Z,9.462923
2022-12-29T10:10:58.204Z,9.462929
2022-12-29T10:11:58.185Z,9.462906
2022-12-29T10:12:58.213Z,9.462949
2022-12-29T10:13:58.177Z,9.462938
2022-12-29T10:14:58.162Z,9.462945
2022-12-29T10:15:58.279Z,9.462949
2022-12-29T10:16:58.140Z,9.462968
2022-12-29T10:17:58.165Z,9.462964
2022-12-29T10:18:58.138Z,9.462946
2022-12-29T10:19:58.145Z,9.462963
2022-12-29T10:20:58.102Z,9.462945
2022-12-29T10:21:58.105Z,9.462962
2022-12-29T10:22:58.288Z,9.462967
2022-12-29T10:23:58.098Z,9.462952
2022-12-29T10:24:58.108Z,9.462955
2022-12-29T10:25:58.126Z,9.462968
2022-12-29T10:26:58.066Z,9.463002
2022-12-29T10:27:58.128Z,9.462996
2022-12-29T10:28:58.053Z,9.463039
2022-12-29T10:29:58.064Z,9.463018
2022-12-29T10:31:01.137Z,9.463005
2022-12-29T10:31:59.170Z,9.463008
2022-12-29T10:32:58.061Z,9.463035
2022-12-29T10:33:58.103Z,9.463037
2022-12-29T10:34:58.024Z,9.463016
2022-12-29T10:35:58.037Z,9.463059
2022-12-29T10:36:58.075Z,9.463128
2022-12-29T10:37:58.033Z,9.463291
2022-12-29T10:38:57.992Z,9.463080
2022-12-29T10:39:58.030Z,9.462908
2022-12-29T10:40:57.984Z,9.462986
2022-12-29T10:41:58.006Z,9.462927
2022-12-29T10:42:57.974Z,9.463017
2022-12-29T10:43:57.974Z,9.463033
2022-12-29T10:44:58.278Z,9.462864
2022-12-29T10:45:57.985Z,9.462937
2022-12-29T10:46:57.963Z,9.462965
2022-12-29T10:47:57.949Z,9.462966
2022-12-29T10:48:57.946Z,9.462980
2022-12-29T10:49:57.928Z,9.462936
2022-12-29T10:51:01.768Z,9.462925
2022-12-29T10:51:57.963Z,9.462966
2022-12-29T10:52:57.918Z,9.462980
2022-12-29T10:53:57.977Z,9.463004
2022-12-29T10:54:58.071Z,9.462976
2022-12-29T10:55:57.927Z,9.462961
2022-12-29T10:56:57.860Z,9.462968
2022-12-29T10:57:58.015Z,9.462957
2022-12-29T10:58:57.882Z,9.462943
2022-12-29T10:59:58.382Z,9.463010
2022-12-29T11:00:57.902Z,9.463081
2022-12-29T11:01:58.086Z,9.462975
2022-12-29T11:02:58.015Z,9.463050
2022-12-29T11:03:57.846Z,9.463052
2022-12-29T11:04:57.868Z,9.463083
2022-12-29T11:05:57.874Z,9.463058
2022-12-29T11:06:57.857Z,9.463056
2022-12-29T11:07:57.829Z,9.463077
2022-12-29T11:08:57.790Z,9.463076
2022-12-29T11:09:57.776Z,9.463040
2022-12-29T11:10:57.776Z,9.463065
2022-12-29T11:11:57.769Z,9.463079
2022-12-29T11:12:57.783Z,9.463108
2022-12-29T11:13:58.099Z,9.463075
2022-12-29T11:14:57.739Z,9.463188
2022-12-29T11:15:57.736Z,9.463176
2022-12-29T11:16:57.774Z,9.463123
2022-12-29T11:17:57.734Z,9.463081
2022-12-29T11:18:57.794Z,9.463090
2022-12-29T11:19:57.723Z,9.463039
2022-12-29T11:20:57.721Z,9.463004
2022-12-29T11:21:57.879Z,9.463078
2022-12-29T11:22:57.692Z,9.463110
2022-12-29T11:23:57.702Z,9.463090
2022-12-29T11:24:57.705Z,9.462967
2022-12-29T11:25:57.674Z,9.462908
2022-12-29T11:26:57.684Z,9.463040
2022-12-29T11:27:57.752Z,9.463007
2022-12-29T11:28:57.649Z,9.462998
2022-12-29T11:29:57.679Z,9.462977
2022-12-29T11:30:57.680Z,9.463035
2022-12-29T11:31:57.664Z,9.462966
2022-12-29T11:32:57.639Z,9.463008
2022-12-29T11:33:57.601Z,9.462901
2022-12-29T11:34:57.642Z,9.463085
2022-12-29T11:35:57.595Z,9.463013
2022-12-29T11:36:57.597Z,9.462989
2022-12-29T11:37:57.612Z,9.463049
2022-12-29T11:38:57.613Z,9.463015
2022-12-29T11:39:57.564Z,9.462914
2022-12-29T11:40:57.573Z,9.462881
2022-12-29T11:41:57.586Z,9.462828
2022-12-29T11:42:57.577Z,9.463019
2022-12-29T11:43:57.561Z,9.463008
2022-12-29T11:44:57.575Z,9.463049